Seabourn Pride — C6FR5 — position and weather

sailwx.info

Track history (hours):
 
Tides and Currents Weather Stations Pressure Air Temp Water Temp Dewpoint Dewpoint Depression Visibility Wind Speed Wind Dir Waves Ship Positions

Seabourn Pride

Operator: Cunard Seabourn

Last reported at 2017-Apr-24 11:00 UTC. Time now 2017-Apr-24 11:25 UTC.
Position N 36°09' W 005°22'.

Length 134 m; draft 5.7 m.

Type: Passenger vessel. MMSI: 311084000.

Date/timePositionNaut miles runAvg speedWind from/ knotsBaromVisibWave heightAir tempDewpointWater temp
2017-Apr-24 11:00N 36°09' W 005°22'0 0.0
2017-Apr-24 10:30N 36°09' W 005°22'0 0.0
2017-Apr-24 10:00N 36°09' W 005°22'0 0.1
2017-Apr-24 09:31N 36°09' W 005°22'2 4.0
2017-Apr-24 09:00N 36°07' W 005°23'3 6.3
2017-Apr-24 08:31N 36°04' W 005°23'4 7.1
2017-Apr-24 08:01N 36°00' W 005°25'4 7.1
2017-Apr-24 07:30N 35°58' W 005°28'4 8.7
2017-Apr-24 07:00N 35°57' W 005°33'4 8.9
2017-Apr-24 06:31N 35°56' W 005°38'6 9.2
2017-Apr-24 05:52N 35°56' W 005°45'134 3.9
2017-Apr-22 19:18N 36°58' W 008°12'310.0
2017-Apr-22 18:58N 36°60' W 008°16'4 8.9
2017-Apr-22 18:30N 37°01' W 008°21'510.1
2017-Apr-22 18:00N 37°03' W 008°27'4 7.8
2017-Apr-22 17:27N 37°05' W 008°31'2 0.6
2017-Apr-22 13:37N 37°08' W 008°32'0 0.0
2017-Apr-22 10:19N 37°08' W 008°32'0 0.3
2017-Apr-22 10:01N 37°08' W 008°32'3 5.2
2017-Apr-22 09:30N 37°05' W 008°32'510.0
2017-Apr-22 08:59N 37°02' W 008°37'4 7.2
2017-Apr-22 08:24N 36°59' W 008°41'3 6.8
2017-Apr-22 07:53N 36°57' W 008°45'7 6.6
2017-Apr-22 06:53N 36°53' W 008°51'36 5.6
2017-Apr-22 00:25N 37°25' W 009°13'610.7
2017-Apr-21 23:50N 37°31' W 009°13'410.8
2017-Apr-21 23:30N 37°35' W 009°13'511.1
2017-Apr-21 23:00N 37°40' W 009°15'510.8
2017-Apr-21 22:30N 37°45' W 009°17'510.5
2017-Apr-21 22:00N 37°50' W 009°18'510.0
2017-Apr-21 21:30N 37°55' W 009°20'510.3
2017-Apr-21 21:00N 38°00' W 009°20'510.0
2017-Apr-21 20:30N 38°05' W 009°21'510.2
2017-Apr-21 20:00N 38°11' W 009°22'510.8
2017-Apr-21 19:30N 38°16' W 009°22'611.3
2017-Apr-21 19:00N 38°22' W 009°23'611.0
2017-Apr-21 18:30N 38°27' W 009°23'510.8
2017-Apr-21 18:00N 38°32' W 009°23'510.6
2017-Apr-21 17:30N 38°38' W 009°22'510.5
2017-Apr-21 16:59N 38°41' W 009°17'5 9.7
2017-Apr-21 16:30N 38°42' W 009°11'3 5.4
2017-Apr-21 16:00N 38°43' W 009°07'0 0.0
2017-Apr-21 15:26N 38°43' W 009°07'0 0.0
2017-Apr-21 14:59N 38°43' W 009°07'0 0.0
2017-Apr-21 14:23N 38°43' W 009°07'0 0.0
2017-Apr-21 13:28N 38°43' W 009°07'0 0.0
2017-Apr-21 12:51N 38°43' W 009°07'0 0.0
2017-Apr-21 12:27N 38°43' W 009°07'0 0.0
2017-Apr-21 11:59N 38°43' W 009°07'0 0.0
2017-Apr-21 11:25N 38°43' W 009°07'0 0.0
2017-Apr-21 10:58N 38°43' W 009°07'0 0.0
2017-Apr-21 10:28N 38°43' W 009°07'0 0.0
2017-Apr-21 09:58N 38°43' W 009°07'0 0.0
2017-Apr-21 09:28N 38°43' W 009°07'0 0.0
2017-Apr-21 08:58N 38°43' W 009°07'0 0.0
2017-Apr-21 08:27N 38°43' W 009°07'0 0.0
2017-Apr-21 07:54N 38°43' W 009°07'0 0.0
2017-Apr-21 07:29N 38°43' W 009°07'0 0.0
2017-Apr-21 06:58N 38°43' W 009°07'0 0.0
2017-Apr-21 06:28N 38°43' W 009°07'0 0.0
2017-Apr-21 05:58N 38°43' W 009°07'0 0.0
2017-Apr-21 05:31N 38°43' W 009°07'1 1.4
2017-Apr-21 05:00N 38°42' W 009°08'4 7.6
2017-Apr-21 04:30N 38°41' W 009°13'3 5.3
2017-Apr-21 04:01N 38°41' W 009°16'3 6.5
2017-Apr-21 03:30N 38°39' W 009°19'5 9.2
2017-Apr-21 03:01N 38°35' W 009°22'5 9.9
2017-Apr-21 02:30N 38°31' W 009°24'510.1
2017-Apr-21 02:01N 38°26' W 009°24'510.7
2017-Apr-21 01:31N 38°20' W 009°24'510.7
2017-Apr-21 01:00N 38°15' W 009°24'510.3
2017-Apr-21 00:30N 38°10' W 009°24'510.4
2017-Apr-21 00:01N 38°05' W 009°24'510.7
2017-Apr-20 23:30N 37°59' W 009°24'510.7
2017-Apr-20 23:00N 37°54' W 009°23'510.1
2017-Apr-20 22:31N 37°49' W 009°23'510.2
2017-Apr-20 22:00N 37°44' W 009°23'910.7
2017-Apr-20 21:10N 37°35' W 009°23'310.7
2017-Apr-20 20:56N 37°32' W 009°23'241 5.6
2017-Apr-19 02:03N 33°42' W 007°55'0 8.9
2017-Apr-19 02:00N 33°42' W 007°56'5 8.9
2017-Apr-19 01:24N 33°41' W 008°02'4 8.9
2017-Apr-19 01:00N 33°40' W 008°06'5 8.9
2017-Apr-19 00:29N 33°39' W 008°11'11 8.8
2017-Apr-18 23:11N 33°34' W 008°24'2 8.8
2017-Apr-18 23:00N 33°34' W 008°26'1110.1
2017-Apr-18 21:52N 33°29' W 008°38'5110.5
2017-Apr-18 17:01N 32°53' W 009°22'210.7
2017-Apr-18 16:52N 32°52' W 009°23'410.7
2017-Apr-18 16:30N 32°49' W 009°25'3510.2
2017-Apr-18 13:05N 32°22' W 009°52'0 1.0
2017-Apr-18 12:56N 32°22' W 009°52'1 1.4
2017-Apr-18 12:30N 32°23' W 009°52'36 8.8
2017-Apr-18 08:22N 31°56' W 010°21'410.1
2017-Apr-18 08:00N 31°53' W 010°23'510.4
2017-Apr-18 07:30N 31°48' W 010°25'162 5.0
2017-Apr-16 22:46N 29°30' W 012°05'2411.1
2017-Apr-16 20:38N 29°21' W 012°30'111.4
2017-Apr-16 20:30N 29°20' W 012°31'611.3
2017-Apr-16 19:59N 29°18' W 012°38'811.3
2017-Apr-16 19:17N 29°15' W 012°46'311.3
2017-Apr-16 19:00N 29°13' W 012°49'611.3
2017-Apr-16 18:30N 29°11' W 012°55'611.2
2017-Apr-16 17:56N 29°08' W 013°02'511.2
2017-Apr-16 17:27N 29°06' W 013°08'1910.8
2017-Apr-16 15:40N 28°59' W 013°28'4 9.8
2017-Apr-16 15:18N 28°57' W 013°32'1 1.8
2017-Apr-16 14:46N 28°58' W 013°32'0 0.0
2017-Apr-16 13:58N 28°58' W 013°32'0 0.0
2017-Apr-16 13:28N 28°58' W 013°32'0 0.0
2017-Apr-16 12:58N 28°58' W 013°32'0 0.0
2017-Apr-16 12:28N 28°58' W 013°32'0 0.0
2017-Apr-16 11:58N 28°58' W 013°32'0 0.0
2017-Apr-16 11:22N 28°58' W 013°32'0 0.0
2017-Apr-16 10:58N 28°58' W 013°32'0 0.0
2017-Apr-16 10:28N 28°58' W 013°32'0 0.0
2017-Apr-16 09:46N 28°58' W 013°32'0 0.0
2017-Apr-16 09:28N 28°58' W 013°32'0 0.0
2017-Apr-16 08:58N 28°58' W 013°32'0 0.0
2017-Apr-16 08:28N 28°58' W 013°32'0 0.0
2017-Apr-16 07:58N 28°58' W 013°32'0 0.0
2017-Apr-16 07:28N 28°58' W 013°32'0 0.0
2017-Apr-16 06:58N 28°58' W 013°32'0 0.0
2017-Apr-16 06:28N 28°58' W 013°32'0 0.0
2017-Apr-16 05:59N 28°58' W 013°32'0 0.7
2017-Apr-16 05:30N 28°58' W 013°32'4 7.2
2017-Apr-16 05:00N 28°55' W 013°35'4 7.7
2017-Apr-16 04:30N 28°53' W 013°39'4 8.1
2017-Apr-16 04:00N 28°51' W 013°42'4 8.5
2017-Apr-16 03:30N 28°49' W 013°47'4 8.8
2017-Apr-16 03:00N 28°49' W 013°52'5 9.5
2017-Apr-16 02:30N 28°49' W 013°57'5 9.2
2017-Apr-16 02:00N 28°48' W 014°02'5 9.3
2017-Apr-16 01:30N 28°46' W 014°07'5 9.3
2017-Apr-16 00:57N 28°43' W 014°12'4 9.4
2017-Apr-16 00:30N 28°40' W 014°16'5 9.4
2017-Apr-16 00:00N 28°38' W 014°20'5 9.3
2017-Apr-15 23:30N 28°36' W 014°25'5 9.2
2017-Apr-15 23:00N 28°33' W 014°29'5 9.5
2017-Apr-15 22:30N 28°30' W 014°33'5 9.4
2017-Apr-15 22:00N 28°27' W 014°38'5 9.2
2017-Apr-15 21:30N 28°24' W 014°42'4 8.9
2017-Apr-15 21:00N 28°22' W 014°46'4 8.6
2017-Apr-15 20:30N 28°19' W 014°49'5 8.9
2017-Apr-15 20:00N 28°15' W 014°52'5 9.5
2017-Apr-15 19:30N 28°11' W 014°55'510.0
2017-Apr-15 19:00N 28°07' W 014°59'5 9.5
2017-Apr-15 18:28N 28°06' W 015°04'5 9.8
2017-Apr-15 18:00N 28°06' W 015°09'510.0
2017-Apr-15 17:30N 28°07' W 015°15'5 9.7
2017-Apr-15 17:00N 28°07' W 015°20'4 8.7
2017-Apr-15 16:30N 28°08' W 015°25'1 0.9
2017-Apr-15 15:53N 28°08' W 015°25'0 0.0
2017-Apr-15 15:26N 28°08' W 015°25'0 0.0
2017-Apr-15 14:56N 28°08' W 015°25'0 0.0
2017-Apr-15 14:26N 28°08' W 015°25'0 0.0
2017-Apr-15 13:29N 28°08' W 015°25'0 0.0
2017-Apr-15 12:59N 28°08' W 015°25'0 0.0
2017-Apr-15 12:29N 28°08' W 015°25'0 0.0
2017-Apr-15 11:59N 28°08' W 015°25'0 0.0
2017-Apr-15 11:29N 28°08' W 015°25'0 0.0
2017-Apr-15 10:59N 28°08' W 015°25'0 0.0
2017-Apr-15 10:26N 28°08' W 015°25'0 0.0
2017-Apr-15 09:59N 28°08' W 015°25'0 0.0
2017-Apr-15 09:29N 28°08' W 015°25'0 0.0
2017-Apr-15 08:59N 28°08' W 015°25'0 0.0
2017-Apr-15 08:29N 28°08' W 015°25'0 0.0
2017-Apr-15 07:59N 28°08' W 015°25'0 0.0
2017-Apr-15 07:29N 28°08' W 015°25'0 0.0
2017-Apr-15 06:59N 28°08' W 015°25'0 0.0
2017-Apr-15 06:30N 28°08' W 015°25'2 3.5
2017-Apr-15 06:00N 28°07' W 015°24'5 9.3
2017-Apr-15 05:30N 28°12' W 015°23'5 9.6
2017-Apr-15 05:00N 28°13' W 015°28'5 9.4
2017-Apr-15 04:30N 28°13' W 015°33'4 7.7
2017-Apr-15 04:00N 28°14' W 015°38'4 7.5
2017-Apr-15 03:30N 28°14' W 015°42'4 7.3
2017-Apr-15 03:00N 28°14' W 015°46'4 7.4
2017-Apr-15 02:29N 28°14' W 015°51'4 7.5
2017-Apr-15 02:00N 28°13' W 015°55'4 7.6
2017-Apr-15 01:27N 28°12' W 015°59'4 7.5
2017-Apr-15 00:58N 28°10' W 016°03'4 7.5
2017-Apr-15 00:29N 28°08' W 016°05'4 7.5
2017-Apr-14 23:56N 28°05' W 016°09'4 7.5
2017-Apr-14 23:28N 28°02' W 016°12'4 7.5
2017-Apr-14 22:59N 27°60' W 016°15'5 7.3
2017-Apr-14 22:15N 27°58' W 016°20'  
Track history (hours):
 
Tides and Currents Weather Stations Pressure Air Temp Water Temp Dewpoint Dewpoint Depression Visibility Wind Speed Wind Dir Waves Ship Positions

Seabourn Pride

Operator: Cunard Seabourn

Last reported at 2017-Apr-24 11:00 UTC. Time now 2017-Apr-24 11:25 UTC.
Position N 36°09' W 005°22'.

Length 134 m; draft 5.7 m.

Type: Passenger vessel. MMSI: 311084000.

Date/timePositionNaut miles runAvg speedWind from/ knotsBaromVisibWave heightAir tempDewpointWater temp
2017-Apr-24 11:00N 36°09' W 005°22'0 0.0
2017-Apr-24 10:30N 36°09' W 005°22'0 0.0
2017-Apr-24 10:00N 36°09' W 005°22'0 0.1
2017-Apr-24 09:31N 36°09' W 005°22'2 4.0
2017-Apr-24 09:00N 36°07' W 005°23'3 6.3
2017-Apr-24 08:31N 36°04' W 005°23'4 7.1
2017-Apr-24 08:01N 36°00' W 005°25'4 7.1
2017-Apr-24 07:30N 35°58' W 005°28'4 8.7
2017-Apr-24 07:00N 35°57' W 005°33'4 8.9
2017-Apr-24 06:31N 35°56' W 005°38'6 9.2
2017-Apr-24 05:52N 35°56' W 005°45'134 3.9
2017-Apr-22 19:18N 36°58' W 008°12'310.0
2017-Apr-22 18:58N 36°60' W 008°16'4 8.9
2017-Apr-22 18:30N 37°01' W 008°21'510.1
2017-Apr-22 18:00N 37°03' W 008°27'4 7.8
2017-Apr-22 17:27N 37°05' W 008°31'2 0.6
2017-Apr-22 13:37N 37°08' W 008°32'0 0.0
2017-Apr-22 10:19N 37°08' W 008°32'0 0.3
2017-Apr-22 10:01N 37°08' W 008°32'3 5.2
2017-Apr-22 09:30N 37°05' W 008°32'510.0
2017-Apr-22 08:59N 37°02' W 008°37'4 7.2
2017-Apr-22 08:24N 36°59' W 008°41'3 6.8
2017-Apr-22 07:53N 36°57' W 008°45'7 6.6
2017-Apr-22 06:53N 36°53' W 008°51'36 5.6
2017-Apr-22 00:25N 37°25' W 009°13'610.7
2017-Apr-21 23:50N 37°31' W 009°13'410.8
2017-Apr-21 23:30N 37°35' W 009°13'511.1
2017-Apr-21 23:00N 37°40' W 009°15'510.8
2017-Apr-21 22:30N 37°45' W 009°17'510.5
2017-Apr-21 22:00N 37°50' W 009°18'510.0
2017-Apr-21 21:30N 37°55' W 009°20'510.3
2017-Apr-21 21:00N 38°00' W 009°20'510.0
2017-Apr-21 20:30N 38°05' W 009°21'510.2
2017-Apr-21 20:00N 38°11' W 009°22'510.8
2017-Apr-21 19:30N 38°16' W 009°22'611.3
2017-Apr-21 19:00N 38°22' W 009°23'611.0
2017-Apr-21 18:30N 38°27' W 009°23'510.8
2017-Apr-21 18:00N 38°32' W 009°23'510.6
2017-Apr-21 17:30N 38°38' W 009°22'510.5
2017-Apr-21 16:59N 38°41' W 009°17'5 9.7
2017-Apr-21 16:30N 38°42' W 009°11'3 5.4
2017-Apr-21 16:00N 38°43' W 009°07'0 0.0
2017-Apr-21 15:26N 38°43' W 009°07'0 0.0
2017-Apr-21 14:59N 38°43' W 009°07'0 0.0
2017-Apr-21 14:23N 38°43' W 009°07'0 0.0
2017-Apr-21 13:28N 38°43' W 009°07'0 0.0
2017-Apr-21 12:51N 38°43' W 009°07'0 0.0
2017-Apr-21 12:27N 38°43' W 009°07'0 0.0
2017-Apr-21 11:59N 38°43' W 009°07'0 0.0
2017-Apr-21 11:25N 38°43' W 009°07'0 0.0
2017-Apr-21 10:58N 38°43' W 009°07'0 0.0
2017-Apr-21 10:28N 38°43' W 009°07'0 0.0
2017-Apr-21 09:58N 38°43' W 009°07'0 0.0
2017-Apr-21 09:28N 38°43' W 009°07'0 0.0
2017-Apr-21 08:58N 38°43' W 009°07'0 0.0
2017-Apr-21 08:27N 38°43' W 009°07'0 0.0
2017-Apr-21 07:54N 38°43' W 009°07'0 0.0
2017-Apr-21 07:29N 38°43' W 009°07'0 0.0
2017-Apr-21 06:58N 38°43' W 009°07'0 0.0
2017-Apr-21 06:28N 38°43' W 009°07'0 0.0
2017-Apr-21 05:58N 38°43' W 009°07'0 0.0
2017-Apr-21 05:31N 38°43' W 009°07'1 1.4
2017-Apr-21 05:00N 38°42' W 009°08'4 7.6
2017-Apr-21 04:30N 38°41' W 009°13'3 5.3
2017-Apr-21 04:01N 38°41' W 009°16'3 6.5
2017-Apr-21 03:30N 38°39' W 009°19'5 9.2
2017-Apr-21 03:01N 38°35' W 009°22'5 9.9
2017-Apr-21 02:30N 38°31' W 009°24'510.1
2017-Apr-21 02:01N 38°26' W 009°24'510.7
2017-Apr-21 01:31N 38°20' W 009°24'510.7
2017-Apr-21 01:00N 38°15' W 009°24'510.3
2017-Apr-21 00:30N 38°10' W 009°24'510.4
2017-Apr-21 00:01N 38°05' W 009°24'510.7
2017-Apr-20 23:30N 37°59' W 009°24'510.7
2017-Apr-20 23:00N 37°54' W 009°23'510.1
2017-Apr-20 22:31N 37°49' W 009°23'510.2
2017-Apr-20 22:00N 37°44' W 009°23'910.7
2017-Apr-20 21:10N 37°35' W 009°23'310.7
2017-Apr-20 20:56N 37°32' W 009°23'241 5.6
2017-Apr-19 02:03N 33°42' W 007°55'0 8.9
2017-Apr-19 02:00N 33°42' W 007°56'5 8.9
2017-Apr-19 01:24N 33°41' W 008°02'4 8.9
2017-Apr-19 01:00N 33°40' W 008°06'5 8.9
2017-Apr-19 00:29N 33°39' W 008°11'11 8.8
2017-Apr-18 23:11N 33°34' W 008°24'2 8.8
2017-Apr-18 23:00N 33°34' W 008°26'1110.1
2017-Apr-18 21:52N 33°29' W 008°38'5110.5
2017-Apr-18 17:01N 32°53' W 009°22'210.7
2017-Apr-18 16:52N 32°52' W 009°23'410.7
2017-Apr-18 16:30N 32°49' W 009°25'3510.2
2017-Apr-18 13:05N 32°22' W 009°52'0 1.0
2017-Apr-18 12:56N 32°22' W 009°52'1 1.4
2017-Apr-18 12:30N 32°23' W 009°52'36 8.8
2017-Apr-18 08:22N 31°56' W 010°21'410.1
2017-Apr-18 08:00N 31°53' W 010°23'510.4
2017-Apr-18 07:30N 31°48' W 010°25'162 5.0
2017-Apr-16 22:46N 29°30' W 012°05'2411.1
2017-Apr-16 20:38N 29°21' W 012°30'111.4
2017-Apr-16 20:30N 29°20' W 012°31'611.3
2017-Apr-16 19:59N 29°18' W 012°38'811.3
2017-Apr-16 19:17N 29°15' W 012°46'311.3
2017-Apr-16 19:00N 29°13' W 012°49'611.3
2017-Apr-16 18:30N 29°11' W 012°55'611.2
2017-Apr-16 17:56N 29°08' W 013°02'511.2
2017-Apr-16 17:27N 29°06' W 013°08'1910.8
2017-Apr-16 15:40N 28°59' W 013°28'4 9.8
2017-Apr-16 15:18N 28°57' W 013°32'1 1.8
2017-Apr-16 14:46N 28°58' W 013°32'0 0.0
2017-Apr-16 13:58N 28°58' W 013°32'0 0.0
2017-Apr-16 13:28N 28°58' W 013°32'0 0.0
2017-Apr-16 12:58N 28°58' W 013°32'0 0.0
2017-Apr-16 12:28N 28°58' W 013°32'0 0.0
2017-Apr-16 11:58N 28°58' W 013°32'0 0.0
2017-Apr-16 11:22N 28°58' W 013°32'0 0.0
2017-Apr-16 10:58N 28°58' W 013°32'0 0.0
2017-Apr-16 10:28N 28°58' W 013°32'0 0.0
2017-Apr-16 09:46N 28°58' W 013°32'0 0.0
2017-Apr-16 09:28N 28°58' W 013°32'0 0.0
2017-Apr-16 08:58N 28°58' W 013°32'0 0.0
2017-Apr-16 08:28N 28°58' W 013°32'0 0.0
2017-Apr-16 07:58N 28°58' W 013°32'0 0.0
2017-Apr-16 07:28N 28°58' W 013°32'0 0.0
2017-Apr-16 06:58N 28°58' W 013°32'0 0.0
2017-Apr-16 06:28N 28°58' W 013°32'0 0.0
2017-Apr-16 05:59N 28°58' W 013°32'0 0.7
2017-Apr-16 05:30N 28°58' W 013°32'4 7.2
2017-Apr-16 05:00N 28°55' W 013°35'4 7.7
2017-Apr-16 04:30N 28°53' W 013°39'4 8.1
2017-Apr-16 04:00N 28°51' W 013°42'4 8.5
2017-Apr-16 03:30N 28°49' W 013°47'4 8.8
2017-Apr-16 03:00N 28°49' W 013°52'5 9.5
2017-Apr-16 02:30N 28°49' W 013°57'5 9.2
2017-Apr-16 02:00N 28°48' W 014°02'5 9.3
2017-Apr-16 01:30N 28°46' W 014°07'5 9.3
2017-Apr-16 00:57N 28°43' W 014°12'4 9.4
2017-Apr-16 00:30N 28°40' W 014°16'5 9.4
2017-Apr-16 00:00N 28°38' W 014°20'5 9.3
2017-Apr-15 23:30N 28°36' W 014°25'5 9.2
2017-Apr-15 23:00N 28°33' W 014°29'5 9.5
2017-Apr-15 22:30N 28°30' W 014°33'5 9.4
2017-Apr-15 22:00N 28°27' W 014°38'5 9.2
2017-Apr-15 21:30N 28°24' W 014°42'4 8.9
2017-Apr-15 21:00N 28°22' W 014°46'4 8.6
2017-Apr-15 20:30N 28°19' W 014°49'5 8.9
2017-Apr-15 20:00N 28°15' W 014°52'5 9.5
2017-Apr-15 19:30N 28°11' W 014°55'510.0
2017-Apr-15 19:00N 28°07' W 014°59'5 9.5
2017-Apr-15 18:28N 28°06' W 015°04'5 9.8
2017-Apr-15 18:00N 28°06' W 015°09'510.0
2017-Apr-15 17:30N 28°07' W 015°15'5 9.7
2017-Apr-15 17:00N 28°07' W 015°20'4 8.7
2017-Apr-15 16:30N 28°08' W 015°25'1 0.9
2017-Apr-15 15:53N 28°08' W 015°25'0 0.0
2017-Apr-15 15:26N 28°08' W 015°25'0 0.0
2017-Apr-15 14:56N 28°08' W 015°25'0 0.0
2017-Apr-15 14:26N 28°08' W 015°25'0 0.0
2017-Apr-15 13:29N 28°08' W 015°25'0 0.0
2017-Apr-15 12:59N 28°08' W 015°25'0 0.0
2017-Apr-15 12:29N 28°08' W 015°25'0 0.0
2017-Apr-15 11:59N 28°08' W 015°25'0 0.0
2017-Apr-15 11:29N 28°08' W 015°25'0 0.0
2017-Apr-15 10:59N 28°08' W 015°25'0 0.0
2017-Apr-15 10:26N 28°08' W 015°25'0 0.0
2017-Apr-15 09:59N 28°08' W 015°25'0 0.0
2017-Apr-15 09:29N 28°08' W 015°25'0 0.0
2017-Apr-15 08:59N 28°08' W 015°25'0 0.0
2017-Apr-15 08:29N 28°08' W 015°25'0 0.0
2017-Apr-15 07:59N 28°08' W 015°25'0 0.0
2017-Apr-15 07:29N 28°08' W 015°25'0 0.0
2017-Apr-15 06:59N 28°08' W 015°25'0 0.0
2017-Apr-15 06:30N 28°08' W 015°25'2 3.5
2017-Apr-15 06:00N 28°07' W 015°24'5 9.3
2017-Apr-15 05:30N 28°12' W 015°23'5 9.6
2017-Apr-15 05:00N 28°13' W 015°28'5 9.4
2017-Apr-15 04:30N 28°13' W 015°33'4 7.7
2017-Apr-15 04:00N 28°14' W 015°38'4 7.5
2017-Apr-15 03:30N 28°14' W 015°42'4 7.3
2017-Apr-15 03:00N 28°14' W 015°46'4 7.4
2017-Apr-15 02:29N 28°14' W 015°51'4 7.5
2017-Apr-15 02:00N 28°13' W 015°55'4 7.6
2017-Apr-15 01:27N 28°12' W 015°59'4 7.5
2017-Apr-15 00:58N 28°10' W 016°03'4 7.5
2017-Apr-15 00:29N 28°08' W 016°05'4 7.5
2017-Apr-14 23:56N 28°05' W 016°09'4 7.5
2017-Apr-14 23:28N 28°02' W 016°12'4 7.5
2017-Apr-14 22:59N 27°60' W 016°15'5 7.3
2017-Apr-14 22:15N 27°58' W 016°20'  

Dump ship's entire track history